createdAt,value
2019-04-16T00:02:18.497Z,1.23
2019-04-16T00:05:07.370Z,1.20
2019-04-16T00:07:47.077Z,1.10
2019-04-16T00:10:44.574Z,1.20
2019-04-16T00:13:35.524Z,1.10
2019-04-16T00:16:05.036Z,1.10
2019-04-16T00:18:34.480Z,1.10
2019-04-16T00:21:22.669Z,1.20
2019-04-16T00:24:18.557Z,1.13
2019-04-16T00:26:57.930Z,0.97
2019-04-16T00:29:25.009Z,1.00
2019-04-16T00:31:57.782Z,0.90
2019-04-16T00:34:27.317Z,1.90
2019-04-16T00:36:57.067Z,1.30
2019-04-16T00:39:27.112Z,1.30
2019-04-16T00:41:57.434Z,1.23
2019-04-16T00:44:27.277Z,1.10
2019-04-16T00:46:57.137Z,1.10
2019-04-16T00:49:27.216Z,1.10
2019-04-16T00:51:57.847Z,1.17
2019-04-16T00:54:27.614Z,1.17
2019-04-16T00:56:57.201Z,1.40
2019-04-16T00:59:26.950Z,1.20
2019-04-16T01:01:57.704Z,1.07
2019-04-16T01:04:28.119Z,0.93
2019-04-16T01:06:57.664Z,1.20
2019-04-16T01:09:27.514Z,1.30
2019-04-16T01:11:57.199Z,1.20
2019-04-16T01:14:27.475Z,1.20
2019-04-16T01:16:57.667Z,1.07
2019-04-16T01:19:28.498Z,1.30
2019-04-16T01:21:58.252Z,1.17
2019-04-16T01:24:27.677Z,1.20
2019-04-16T01:26:59.116Z,1.30
2019-04-16T01:29:33.638Z,1.30
2019-04-16T01:32:27.724Z,1.20
2019-04-16T01:35:19.805Z,1.33
2019-04-16T01:38:07.005Z,1.23
2019-04-16T01:40:42.752Z,1.13
2019-04-16T01:43:12.415Z,1.30
2019-04-16T01:45:41.901Z,1.10
2019-04-16T01:48:11.562Z,1.37
2019-04-16T01:50:43.769Z,1.37
2019-04-16T01:53:13.022Z,1.30
2019-04-16T01:55:42.732Z,1.20
2019-04-16T01:58:12.409Z,1.43
2019-04-16T02:00:42.061Z,1.03
2019-04-16T02:03:11.558Z,1.13
2019-04-16T02:05:41.111Z,1.17
2019-04-16T02:08:10.685Z,1.20
2019-04-16T02:10:40.216Z,1.37
2019-04-16T02:13:09.683Z,1.07
2019-04-16T02:15:41.212Z,1.20
2019-04-16T02:18:10.756Z,1.40
2019-04-16T02:20:40.320Z,1.33
2019-04-16T02:23:09.958Z,1.30
2019-04-16T02:25:39.507Z,1.40
2019-04-16T02:28:09.384Z,1.20
2019-04-16T02:30:39.811Z,1.17
2019-04-16T02:33:09.427Z,1.20
2019-04-16T02:35:38.971Z,1.57
2019-04-16T02:38:12.259Z,1.20
2019-04-16T02:40:40.029Z,1.43
2019-04-16T02:43:09.871Z,1.40
2019-04-16T02:45:39.502Z,1.50
2019-04-16T02:48:15.269Z,1.30
2019-04-16T02:50:43.922Z,1.50
2019-04-16T02:53:31.326Z,1.83
2019-04-16T02:56:20.212Z,1.87
2019-04-16T02:58:55.081Z,1.77
2019-04-16T03:01:42.412Z,1.60
2019-04-16T03:04:16.210Z,2.00
2019-04-16T03:06:45.966Z,1.80
2019-04-16T03:09:15.718Z,1.90
2019-04-16T03:11:45.555Z,1.70
2019-04-16T03:14:16.738Z,1.67
2019-04-16T03:17:11.876Z,3.80
2019-04-16T03:19:42.955Z,1.90
2019-04-16T03:22:12.391Z,2.17
2019-04-16T03:24:42.021Z,3.00
2019-04-16T03:27:11.663Z,1.73
2019-04-16T03:29:41.073Z,1.70
2019-04-16T03:32:14.275Z,1.30
2019-04-16T03:34:41.870Z,1.03
2019-04-16T03:37:11.350Z,1.40
2019-04-16T03:39:43.781Z,1.60
2019-04-16T03:42:12.609Z,1.80
2019-04-16T03:44:42.045Z,1.70
2019-04-16T03:47:11.945Z,1.53
2019-04-16T03:49:41.694Z,1.33
2019-04-16T03:52:11.226Z,1.30
2019-04-16T03:54:40.968Z,1.40
2019-04-16T03:57:10.984Z,1.60
2019-04-16T03:59:40.801Z,1.60
2019-04-16T04:02:10.621Z,1.40
2019-04-16T04:04:40.242Z,1.90
2019-04-16T04:07:12.027Z,1.50
2019-04-16T04:09:41.317Z,1.37
2019-04-16T04:12:13.341Z,1.70
2019-04-16T04:14:42.199Z,1.73
2019-04-16T04:17:12.144Z,1.53
2019-04-16T04:19:43.548Z,1.67
2019-04-16T04:22:12.984Z,1.40
2019-04-16T04:24:42.378Z,1.43
2019-04-16T04:27:13.960Z,1.43
2019-04-16T04:29:46.133Z,1.50
2019-04-16T04:32:15.204Z,1.57
2019-04-16T04:34:45.402Z,1.77
2019-04-16T04:37:16.070Z,1.70
2019-04-16T04:39:46.239Z,1.65
2019-04-16T04:42:18.619Z,1.60
2019-04-16T04:44:47.802Z,1.60
2019-04-16T04:47:19.270Z,1.30
2019-04-16T04:49:48.749Z,1.50
2019-04-16T04:52:18.556Z,1.50
2019-04-16T04:54:48.007Z,1.73
2019-04-16T04:57:17.498Z,1.80
2019-04-16T04:59:47.436Z,2.57
2019-04-16T05:02:17.057Z,1.60
2019-04-16T05:04:53.254Z,1.60
2019-04-16T05:07:25.737Z,1.90
2019-04-16T05:09:54.643Z,1.60
2019-04-16T05:12:24.179Z,1.67
2019-04-16T05:14:58.634Z,1.87
2019-04-16T05:17:29.396Z,1.40
2019-04-16T05:20:01.966Z,1.70
2019-04-16T05:22:33.223Z,1.40
2019-04-16T05:25:03.332Z,1.53
2019-04-16T05:27:32.836Z,3.00
2019-04-16T05:30:04.500Z,1.60
2019-04-16T05:32:34.426Z,1.30
2019-04-16T05:35:09.200Z,1.20
2019-04-16T05:37:35.604Z,1.40
2019-04-16T05:40:05.987Z,1.20
2019-04-16T05:42:35.530Z,1.70
2019-04-16T05:45:06.411Z,1.30
2019-04-16T05:47:36.036Z,1.37
2019-04-16T05:50:06.068Z,1.60
2019-04-16T05:52:36.579Z,1.97
2019-04-16T05:55:25.489Z,1.37
2019-04-16T05:57:58.152Z,1.60
2019-04-16T06:00:33.946Z,1.30
2019-04-16T06:03:03.767Z,1.40
2019-04-16T06:05:33.243Z,2.93
2019-04-16T06:08:12.457Z,1.60
2019-04-16T06:10:41.909Z,1.40
2019-04-16T06:13:34.889Z,1.30
2019-04-16T06:16:14.307Z,1.53
2019-04-16T06:18:56.688Z,1.60
2019-04-16T06:21:39.818Z,1.30
2019-04-16T06:24:40.331Z,1.50
2019-04-16T06:27:29.062Z,1.43
2019-04-16T06:30:21.153Z,1.40
2019-04-16T06:32:57.168Z,1.50
2019-04-16T06:35:43.315Z,1.30
2019-04-16T06:38:17.843Z,1.63
2019-04-16T06:41:12.519Z,1.30
2019-04-16T06:43:44.457Z,1.23
2019-04-16T06:46:49.639Z,1.17
2019-04-16T06:49:39.431Z,1.20
2019-04-16T06:52:29.679Z,1.50
2019-04-16T06:55:27.981Z,1.10
2019-04-16T06:58:28.523Z,1.40
2019-04-16T07:01:22.518Z,1.20
2019-04-16T07:03:58.272Z,1.00
2019-04-16T07:06:50.694Z,1.70
2019-04-16T07:09:35.137Z,1.83
2019-04-16T07:12:01.803Z,1.43
2019-04-16T07:14:31.453Z,1.40
2019-04-16T07:17:01.145Z,1.50
2019-04-16T07:19:30.392Z,1.30
2019-04-16T07:22:00.181Z,1.33
2019-04-16T07:24:31.420Z,1.33
2019-04-16T07:27:01.791Z,1.20
2019-04-16T07:29:51.821Z,1.30
2019-04-16T07:32:52.383Z,1.27
2019-04-16T07:35:44.080Z,1.30
2019-04-16T07:38:47.870Z,1.50
2019-04-16T07:41:27.316Z,1.37
2019-04-16T07:44:36.462Z,1.70
2019-04-16T07:47:20.052Z,1.40
2019-04-16T07:50:11.878Z,1.23
2019-04-16T07:52:58.638Z,1.37
2019-04-16T07:55:35.816Z,1.80
2019-04-16T07:58:05.282Z,1.53
2019-04-16T08:00:40.291Z,1.40
2019-04-16T08:03:06.450Z,1.50
2019-04-16T08:05:37.735Z,1.80
2019-04-16T08:08:11.230Z,1.57
2019-04-16T08:10:40.731Z,1.40
2019-04-16T08:13:20.927Z,1.37
2019-04-16T08:15:50.460Z,1.37
2019-04-16T08:18:20.196Z,1.40
2019-04-16T08:21:01.184Z,1.10
2019-04-16T08:23:30.673Z,1.63
2019-04-16T08:26:04.076Z,1.37
2019-04-16T08:28:32.877Z,1.13
2019-04-16T08:31:03.018Z,1.27
2019-04-16T08:33:32.509Z,1.20
2019-04-16T08:36:02.018Z,2.83
2019-04-16T08:38:34.828Z,1.17
2019-04-16T08:41:02.950Z,1.27
2019-04-16T08:43:32.617Z,1.30
2019-04-16T08:46:02.291Z,1.60
2019-04-16T08:48:31.739Z,1.33
2019-04-16T08:51:04.309Z,1.40
2019-04-16T08:53:35.456Z,1.30
2019-04-16T08:56:04.359Z,1.80
2019-04-16T08:58:35.642Z,1.40
2019-04-16T09:01:06.685Z,1.60
2019-04-16T09:03:36.334Z,1.60
2019-04-16T09:06:06.863Z,1.50
2019-04-16T09:08:55.804Z,1.60
2019-04-16T09:11:28.340Z,1.23
2019-04-16T09:14:01.032Z,1.43
2019-04-16T09:16:31.810Z,1.57
2019-04-16T09:19:06.418Z,1.93
2019-04-16T09:21:35.897Z,2.10
2019-04-16T09:24:22.468Z,1.80
2019-04-16T09:27:06.746Z,1.60
2019-04-16T09:29:49.595Z,1.10
2019-04-16T09:32:49.836Z,1.40
2019-04-16T09:35:34.094Z,1.30
2019-04-16T09:38:22.839Z,1.80
2019-04-16T09:41:11.683Z,1.80
2019-04-16T09:43:46.529Z,1.43
2019-04-16T09:46:22.229Z,1.17
2019-04-16T09:48:50.012Z,1.80
2019-04-16T09:51:20.771Z,1.40
2019-04-16T09:53:50.394Z,1.47
2019-04-16T09:56:29.975Z,1.63
2019-04-16T09:59:19.857Z,1.80
2019-04-16T10:01:56.442Z,1.20
2019-04-16T10:04:26.254Z,1.60
2019-04-16T10:06:56.137Z,1.70
2019-04-16T10:09:25.838Z,1.40
2019-04-16T10:11:57.253Z,1.30
2019-04-16T10:14:26.668Z,1.50
2019-04-16T10:16:56.498Z,1.53
2019-04-16T10:19:26.199Z,1.60
2019-04-16T10:21:55.807Z,1.67
2019-04-16T10:24:47.617Z,1.60
2019-04-16T10:27:31.298Z,1.73
2019-04-16T10:30:00.150Z,1.83
2019-04-16T10:32:30.044Z,1.90
2019-04-16T10:34:59.431Z,1.70
2019-04-16T10:37:29.141Z,1.60
2019-04-16T10:40:05.057Z,1.60
2019-04-16T10:43:06.917Z,1.50
2019-04-16T10:45:58.078Z,1.50
2019-04-16T10:48:46.768Z,1.30
2019-04-16T10:51:33.879Z,1.73
2019-04-16T10:54:12.308Z,1.00
2019-04-16T10:57:00.678Z,1.90
2019-04-16T10:59:39.808Z,1.60
2019-04-16T11:02:28.741Z,1.60
2019-04-16T11:05:19.000Z,1.90
2019-04-16T11:07:49.419Z,1.80
2019-04-16T11:10:19.090Z,1.57
2019-04-16T11:12:48.488Z,1.57
2019-04-16T11:15:23.427Z,1.40
2019-04-16T11:17:55.426Z,1.60
2019-04-16T11:20:25.797Z,1.50
2019-04-16T11:22:55.334Z,1.50
2019-04-16T11:25:25.153Z,1.40
2019-04-16T11:27:55.368Z,1.70
2019-04-16T11:30:48.760Z,1.50
2019-04-16T11:33:17.745Z,1.37
2019-04-16T11:35:52.816Z,1.43
2019-04-16T11:38:18.992Z,1.37
2019-04-16T11:40:48.449Z,1.50
2019-04-16T11:43:18.026Z,1.50
2019-04-16T11:45:48.076Z,1.43
2019-04-16T11:48:17.590Z,1.40
2019-04-16T11:50:47.449Z,1.60
2019-04-16T11:53:17.214Z,1.37
2019-04-16T11:55:46.703Z,1.40
2019-04-16T11:58:26.353Z,1.20
2019-04-16T12:01:04.726Z,1.50
2019-04-16T12:03:50.644Z,1.13
2019-04-16T12:06:34.426Z,1.50
2019-04-16T12:09:32.556Z,1.40
2019-04-16T12:12:23.690Z,1.60
2019-04-16T12:15:14.982Z,1.10
2019-04-16T12:17:56.018Z,1.73
2019-04-16T12:20:44.102Z,2.27
2019-04-16T12:23:31.415Z,1.30
2019-04-16T12:26:18.589Z,1.57
2019-04-16T12:29:11.020Z,1.70
2019-04-16T12:31:57.135Z,1.50
2019-04-16T12:34:51.151Z,1.47
2019-04-16T12:37:30.509Z,1.40
2019-04-16T12:40:09.723Z,1.40
2019-04-16T12:42:48.493Z,1.50
2019-04-16T12:45:40.137Z,1.50
2019-04-16T12:48:33.378Z,2.20
2019-04-16T12:51:08.102Z,1.20
2019-04-16T12:53:55.266Z,2.53
2019-04-16T12:56:42.747Z,1.60
2019-04-16T12:59:15.456Z,1.90
2019-04-16T13:02:21.904Z,1.50
2019-04-16T13:05:09.345Z,1.50
2019-04-16T13:08:03.752Z,3.27
2019-04-16T13:10:55.451Z,1.20
2019-04-16T13:13:47.970Z,1.23
2019-04-16T13:16:25.372Z,1.30
2019-04-16T13:19:31.706Z,1.70
2019-04-16T13:22:04.288Z,1.83
2019-04-16T13:24:46.681Z,1.67
2019-04-16T13:27:18.824Z,1.20
2019-04-16T13:29:48.467Z,1.70
2019-04-16T13:32:17.991Z,2.00
2019-04-16T13:34:47.880Z,1.50
2019-04-16T13:37:19.686Z,1.60
2019-04-16T13:39:59.501Z,1.70
2019-04-16T13:42:28.453Z,1.60
2019-04-16T13:45:15.770Z,1.60
2019-04-16T13:47:45.957Z,1.57
2019-04-16T13:50:24.228Z,1.60
2019-04-16T13:52:58.420Z,1.50
2019-04-16T13:55:32.767Z,1.80
2019-04-16T13:58:24.348Z,1.30
2019-04-16T14:00:58.814Z,1.60
2019-04-16T14:03:28.399Z,3.27
2019-04-16T14:05:59.105Z,1.90
2019-04-16T14:08:29.115Z,1.70
2019-04-16T14:10:59.136Z,1.47
2019-04-16T14:13:28.689Z,1.43
2019-04-16T14:15:58.824Z,1.30
2019-04-16T14:18:29.594Z,1.80
2019-04-16T14:21:00.470Z,1.33
2019-04-16T14:23:30.048Z,1.70
2019-04-16T14:25:59.570Z,1.50
2019-04-16T14:28:34.287Z,1.73
2019-04-16T14:31:00.959Z,1.73
2019-04-16T14:33:46.336Z,1.70
2019-04-16T14:36:15.899Z,1.63
2019-04-16T14:38:49.877Z,1.10
2019-04-16T14:41:19.551Z,1.63
2019-04-16T14:43:55.069Z,1.60
2019-04-16T14:46:28.192Z,1.97
2019-04-16T14:48:56.508Z,1.60
2019-04-16T14:51:26.212Z,1.73
2019-04-16T14:54:01.894Z,1.97
2019-04-16T14:56:40.286Z,1.90
2019-04-16T14:59:33.729Z,1.50
2019-04-16T15:02:11.078Z,1.70
2019-04-16T15:04:58.410Z,1.47
2019-04-16T15:07:36.206Z,1.80
2019-04-16T15:10:28.784Z,1.43
2019-04-16T15:13:22.113Z,1.70
2019-04-16T15:16:08.235Z,1.70
2019-04-16T15:18:52.854Z,1.70
2019-04-16T15:21:50.581Z,1.67
2019-04-16T15:24:29.692Z,1.80
2019-04-16T15:27:07.342Z,2.00
2019-04-16T15:30:00.651Z,1.50
2019-04-16T15:32:53.079Z,1.60
2019-04-16T15:35:33.921Z,2.20
2019-04-16T15:38:20.946Z,1.80
2019-04-16T15:40:52.416Z,2.57
2019-04-16T15:43:39.735Z,2.40
2019-04-16T15:46:27.806Z,2.50
2019-04-16T15:49:22.682Z,2.80
2019-04-16T15:58:51.740Z,2.00
2019-04-16T16:01:38.941Z,2.50
2019-04-16T16:04:17.443Z,1.90
2019-04-16T16:07:09.322Z,2.57
2019-04-16T16:10:22.212Z,2.40
2019-04-16T16:12:53.616Z,2.20
2019-04-16T16:15:23.722Z,1.70
2019-04-16T16:17:53.348Z,1.80
2019-04-16T16:20:23.281Z,2.00
2019-04-16T16:22:54.595Z,1.63
2019-04-16T16:25:24.658Z,2.93
2019-04-16T16:27:54.321Z,1.83
2019-04-16T16:30:24.390Z,1.70
2019-04-16T16:32:54.442Z,2.00
2019-04-16T16:35:24.628Z,1.70
2019-04-16T16:37:56.473Z,1.70
2019-04-16T16:40:26.239Z,1.70
2019-04-16T16:42:55.878Z,1.73
2019-04-16T16:45:41.251Z,1.90
2019-04-16T16:48:10.836Z,1.80
2019-04-16T16:50:41.060Z,2.10
2019-04-16T16:53:23.211Z,10.43
2019-04-16T16:55:57.885Z,1.80
2019-04-16T16:58:46.764Z,1.90
2019-04-16T17:01:40.926Z,2.13
2019-04-16T17:04:14.025Z,1.80
2019-04-16T17:06:43.822Z,1.90
2019-04-16T17:09:27.115Z,2.20
2019-04-16T17:11:56.840Z,1.70
2019-04-16T17:14:26.758Z,2.00
2019-04-16T17:17:11.342Z,2.30
2019-04-16T17:19:28.375Z,2.00
2019-04-16T17:21:58.101Z,1.90
2019-04-16T17:24:27.743Z,2.10
2019-04-16T17:26:57.748Z,1.73
2019-04-16T17:29:27.318Z,1.73
2019-04-16T17:31:56.828Z,2.20
2019-04-16T17:34:26.828Z,1.90
2019-04-16T17:36:56.636Z,1.93
2019-04-16T17:39:54.668Z,1.93
2019-04-16T17:42:39.075Z,1.70
2019-04-16T17:45:33.972Z,2.03
2019-04-16T17:48:37.645Z,2.10
2019-04-16T17:51:26.494Z,1.93
2019-04-16T17:54:17.999Z,2.00
2019-04-16T17:57:05.733Z,1.83
2019-04-16T17:59:42.825Z,1.90
2019-04-16T18:02:37.428Z,1.90
2019-04-16T18:05:29.263Z,1.80
2019-04-16T18:08:17.984Z,1.83
2019-04-16T18:11:06.433Z,2.07
2019-04-16T18:13:45.529Z,2.10
2019-04-16T18:16:22.645Z,1.90
2019-04-16T18:19:12.152Z,1.67
2019-04-16T18:21:49.133Z,2.40
2019-04-16T18:24:27.974Z,2.10
2019-04-16T18:27:29.511Z,2.03
2019-04-16T18:30:30.420Z,1.80
2019-04-16T18:33:18.880Z,2.40
2019-04-16T18:36:26.606Z,2.30
2019-04-16T18:39:09.391Z,2.10
2019-04-16T18:41:46.753Z,1.80
2019-04-16T18:44:38.366Z,2.30
2019-04-16T18:47:36.603Z,2.03
2019-04-16T18:50:13.805Z,2.10
2019-04-16T18:52:43.658Z,2.13
2019-04-16T18:55:13.703Z,2.10
2019-04-16T18:57:43.454Z,2.03
2019-04-16T19:00:31.926Z,2.40
2019-04-16T19:03:00.636Z,2.03
2019-04-16T19:05:33.349Z,2.03
2019-04-16T19:08:03.484Z,1.60
2019-04-16T19:10:33.426Z,2.20
2019-04-16T19:13:09.701Z,1.90
2019-04-16T19:15:35.983Z,2.10
2019-04-16T19:18:19.343Z,2.23
2019-04-16T19:20:37.353Z,3.40
2019-04-16T19:23:07.000Z,2.00
2019-04-16T19:25:38.613Z,2.77
2019-04-16T19:28:08.639Z,2.90
2019-04-16T19:30:39.368Z,2.43
2019-04-16T19:33:09.077Z,2.30
2019-04-16T19:35:38.808Z,2.50
2019-04-16T19:38:08.506Z,2.40
2019-04-16T19:40:38.707Z,3.60
2019-04-16T19:43:08.239Z,3.37
2019-04-16T19:45:40.612Z,2.60
2019-04-16T19:48:10.162Z,2.63
2019-04-16T19:50:39.761Z,2.60
2019-04-16T19:53:14.950Z,12.17
2019-04-16T19:55:45.946Z,3.53
2019-04-16T19:58:15.818Z,3.23
2019-04-16T20:00:45.455Z,3.37
2019-04-16T20:03:16.673Z,3.37
2019-04-16T20:05:46.370Z,3.20
2019-04-16T20:08:15.982Z,3.07
2019-04-16T20:10:49.060Z,2.60
2019-04-16T20:13:18.672Z,2.60
2019-04-16T20:15:48.175Z,2.10
2019-04-16T20:18:20.056Z,2.43
2019-04-16T20:20:51.308Z,2.40
2019-04-16T20:23:21.574Z,2.50
2019-04-16T20:25:51.372Z,2.53
2019-04-16T20:28:22.047Z,2.40
2019-04-16T20:30:57.361Z,4.10
2019-04-16T20:33:23.008Z,2.80
2019-04-16T20:35:53.276Z,2.60
2019-04-16T20:38:22.926Z,2.87
2019-04-16T20:40:53.395Z,3.10
2019-04-16T20:43:23.623Z,2.70
2019-04-16T20:45:53.836Z,3.07
2019-04-16T20:48:25.928Z,2.80
2019-04-16T20:50:59.341Z,2.87
2019-04-16T20:53:27.256Z,2.50
2019-04-16T20:56:00.366Z,2.70
2019-04-16T20:58:32.426Z,3.23
2019-04-16T21:01:03.273Z,4.27
2019-04-16T21:03:33.138Z,2.93
2019-04-16T21:06:07.824Z,2.77
2019-04-16T21:08:36.621Z,2.53
2019-04-16T21:11:09.627Z,2.90
2019-04-16T21:13:39.705Z,2.77
2019-04-16T21:16:16.953Z,2.63
2019-04-16T21:18:46.735Z,2.83
2019-04-16T21:21:16.598Z,3.20
2019-04-16T21:23:48.462Z,2.87
2019-04-16T21:26:19.937Z,3.20
2019-04-16T21:29:21.674Z,3.20
2019-04-16T21:31:55.640Z,3.83
2019-04-16T21:34:34.791Z,4.43
2019-04-16T21:37:23.296Z,3.60
2019-04-16T21:40:01.403Z,3.63
2019-04-16T21:42:34.251Z,4.47
2019-04-16T21:45:03.701Z,5.00
2019-04-16T21:47:33.414Z,4.13
2019-04-16T21:50:03.189Z,5.63
2019-04-16T21:52:35.478Z,4.37
2019-04-16T21:55:05.831Z,6.40
2019-04-16T21:57:35.634Z,5.90
2019-04-16T22:00:08.899Z,6.40
2019-04-16T22:02:39.261Z,5.50
2019-04-16T22:05:10.092Z,5.57
2019-04-16T22:07:39.614Z,5.17
2019-04-16T22:10:09.278Z,3.27
2019-04-16T22:12:39.035Z,3.63
2019-04-16T22:15:09.073Z,3.40
2019-04-16T22:17:39.422Z,2.90
2019-04-16T22:20:09.194Z,3.47
2019-04-16T22:22:38.697Z,3.10
2019-04-16T22:25:08.330Z,3.13
2019-04-16T22:27:39.682Z,3.20
2019-04-16T22:30:10.143Z,2.97
2019-04-16T22:32:39.734Z,3.00
2019-04-16T22:35:09.291Z,3.30
2019-04-16T22:37:38.801Z,3.57
2019-04-16T22:40:45.717Z,3.17
2019-04-16T22:43:46.206Z,3.40
2019-04-16T22:46:37.244Z,3.47
2019-04-16T22:49:06.833Z,2.70
2019-04-16T22:51:36.308Z,2.27
2019-04-16T22:54:06.847Z,2.90
2019-04-16T22:57:01.420Z,2.40
2019-04-16T22:59:30.642Z,2.23
2019-04-16T23:02:00.557Z,2.03
2019-04-16T23:04:29.983Z,2.30
2019-04-16T23:06:59.629Z,1.97
2019-04-16T23:09:30.775Z,1.90
2019-04-16T23:12:00.815Z,2.10
2019-04-16T23:14:34.265Z,1.80
2019-04-16T23:17:02.120Z,1.70
2019-04-16T23:19:32.452Z,2.00
2019-04-16T23:22:02.087Z,2.10
2019-04-16T23:24:31.746Z,2.37
2019-04-16T23:27:04.521Z,2.13
2019-04-16T23:29:32.689Z,2.03
2019-04-16T23:32:02.422Z,1.80
2019-04-16T23:34:34.859Z,2.50
2019-04-16T23:37:04.371Z,1.90
2019-04-16T23:39:36.499Z,2.33
2019-04-16T23:42:05.369Z,2.20
2019-04-16T23:44:58.587Z,2.20
2019-04-16T23:47:39.616Z,3.70
2019-04-16T23:50:22.027Z,4.53
2019-04-16T23:53:16.666Z,3.70
2019-04-16T23:56:05.067Z,3.67
2019-04-16T23:58:43.126Z,3.47
